createdAt,value
2023-03-07T02:57:00.656Z,0.2
2023-03-07T02:58:00.587Z,0.3
2023-03-07T03:06:00.586Z,0.5
2023-03-07T03:11:00.617Z,0.4
2023-03-07T03:12:00.623Z,0.3
2023-03-07T03:14:01.021Z,0.2
2023-03-07T03:20:00.803Z,0.1
2023-03-07T03:37:00.606Z,0.2
2023-03-07T03:38:00.616Z,0.3
2023-03-07T03:51:00.625Z,0.2
2023-03-07T03:52:00.602Z,0.1
2023-03-07T05:05:01.732Z,0.1
2023-03-07T05:06:00.206Z,0.2
2023-03-07T05:08:00.520Z,0.3
2023-03-07T05:10:00.467Z,0.4
2023-03-07T05:11:00.210Z,0.5
2023-03-07T05:13:00.300Z,0.6
2023-03-07T05:14:00.201Z,0.7
2023-03-07T05:16:00.338Z,0.9
2023-03-07T05:17:00.228Z,1.1
2023-03-07T05:18:00.241Z,1.3
2023-03-07T05:19:00.203Z,1.5
2023-03-07T05:21:00.401Z,1.7
2023-03-07T05:22:00.203Z,1.9
2023-03-07T05:23:05.281Z,2.1
2023-03-07T05:24:00.216Z,2.4
2023-03-07T05:25:00.708Z,3.3
2023-03-07T05:26:00.207Z,4.1
2023-03-07T05:27:00.205Z,5.0
2023-03-07T05:28:00.218Z,6.3
2023-03-07T05:29:00.239Z,7.7
2023-03-07T05:30:01.305Z,10.3
2023-03-07T05:31:00.327Z,12.9
2023-03-07T05:32:00.204Z,15.5
2023-03-07T05:33:00.206Z,20.0
2023-03-07T05:34:00.246Z,24.5
2023-03-07T05:35:01.449Z,31.4
2023-03-07T05:36:00.293Z,38.3
2023-03-07T05:37:00.239Z,45.1
2023-03-07T05:38:00.208Z,56.9
2023-03-07T05:39:00.247Z,68.6
2023-03-07T05:41:00.241Z,98.2
2023-03-07T05:42:00.209Z,113.0
2023-03-07T05:43:00.208Z,129.7
2023-03-07T05:44:00.457Z,146.5
2023-03-07T05:45:01.312Z,163.4
2023-03-07T05:46:00.280Z,180.3
2023-03-07T05:47:00.216Z,197.3
2023-03-07T05:48:00.212Z,221.9
2023-03-07T05:49:00.257Z,246.5
2023-03-07T05:51:00.471Z,322.6
2023-03-07T05:52:00.213Z,360.7
2023-03-07T05:53:00.243Z,400.2
2023-03-07T05:54:00.248Z,439.7
2023-03-07T05:55:01.190Z,501.1
2023-03-07T05:56:00.213Z,562.5
2023-03-07T05:57:00.219Z,623.9
2023-03-07T05:58:00.213Z,705.6
2023-03-07T05:59:00.633Z,787.3
2023-03-07T06:01:00.218Z,1045.3
2023-03-07T06:02:00.211Z,1174.3
2023-03-07T06:03:00.496Z,1327.0
2023-03-07T06:04:00.322Z,1479.7
2023-03-07T06:05:00.682Z,1572.2
2023-03-07T06:06:00.213Z,1664.7
2023-03-07T06:07:00.432Z,1757.1
2023-03-07T06:08:00.258Z,1933.5
2023-03-07T06:09:00.275Z,2109.8
2023-03-07T06:10:00.447Z,2333.7
2023-03-07T06:11:00.218Z,2557.7
2023-03-07T06:12:00.219Z,2781.6
2023-03-07T06:13:00.229Z,2859.3
2023-03-07T06:14:00.280Z,2936.9
2023-03-07T06:15:01.089Z,3014.2
2023-03-07T06:16:00.531Z,3091.5
2023-03-07T06:17:00.219Z,3168.7
2023-03-07T06:18:00.230Z,3257.9
2023-03-07T06:19:00.264Z,3347.0
2023-03-07T06:20:00.692Z,3499.2
2023-03-07T06:21:00.284Z,3651.4
2023-03-07T06:22:00.221Z,3803.6
2023-03-07T06:23:00.222Z,3947.8
2023-03-07T06:24:00.262Z,4092.0
2023-03-07T06:25:04.451Z,4546.3
2023-03-07T06:26:00.219Z,5000.5
2023-03-07T06:27:00.224Z,5454.8
2023-03-07T06:28:00.237Z,5819.9
2023-03-07T06:29:00.261Z,6185.1
2023-03-07T06:30:01.137Z,6831.7
2023-03-07T06:31:00.375Z,7478.4
2023-03-07T06:32:00.226Z,8125.1
2023-03-07T06:33:00.232Z,8477.3
2023-03-07T06:34:00.267Z,8829.6
2023-03-07T06:35:03.589Z,9900.1
2023-03-07T06:36:00.263Z,10970.5
2023-03-07T06:37:00.242Z,12041.0
2023-03-07T06:38:00.230Z,12477.5
2023-03-07T06:39:01.349Z,12913.9
2023-03-07T06:40:00.695Z,12892.9
2023-03-07T06:41:00.246Z,12871.8
2023-03-07T06:42:00.230Z,12850.7
2023-03-07T06:43:00.227Z,13197.6
2023-03-07T06:44:00.291Z,13544.5
2023-03-07T06:46:00.773Z,13480.2
2023-03-07T06:47:00.535Z,13448.1
2023-03-07T06:48:00.233Z,13982.7
2023-03-07T06:49:00.272Z,14517.4
2023-03-07T06:50:00.445Z,14454.7
2023-03-07T06:51:00.235Z,14391.9
2023-03-07T06:52:00.227Z,14329.2
2023-03-07T06:53:00.232Z,15070.7
2023-03-07T06:54:00.290Z,15812.3
2023-03-07T06:55:00.609Z,16480.5
2023-03-07T06:56:00.226Z,17148.8
2023-03-07T06:57:00.360Z,17817.1
2023-03-07T06:58:00.241Z,19774.7
2023-03-07T06:59:00.779Z,21732.4
2023-03-07T07:01:00.240Z,25728.9
2023-03-07T07:02:00.474Z,27727.2
2023-03-07T07:03:00.362Z,29653.4
2023-03-07T07:04:05.235Z,31579.6
2023-03-07T07:05:01.425Z,31753.5
2023-03-07T07:06:00.234Z,31927.5
2023-03-07T07:07:00.247Z,32101.4
2023-03-07T07:08:00.252Z,31982.6
2023-03-07T07:09:00.292Z,31863.8
2023-03-07T07:10:00.714Z,31404.9
2023-03-07T07:11:00.274Z,30945.9
2023-03-07T07:12:00.236Z,30487.0
2023-03-07T07:13:00.268Z,28473.6
2023-03-07T07:14:00.267Z,26460.2
2023-03-07T07:16:00.232Z,23724.5
2023-03-07T07:17:00.244Z,22356.6
2023-03-07T07:18:00.493Z,22815.7
2023-03-07T07:19:00.282Z,23274.7
2023-03-07T07:20:00.846Z,24631.3
2023-03-07T07:21:00.253Z,25987.8
2023-03-07T07:22:00.250Z,27344.3
2023-03-07T07:23:00.243Z,29479.4
2023-03-07T07:24:00.413Z,31614.5
2023-03-07T07:26:00.246Z,36412.1
2023-03-07T07:27:00.238Z,38810.9
2023-03-07T07:28:00.242Z,41512.7
2023-03-07T07:29:00.311Z,44214.6
2023-03-07T07:31:00.244Z,50010.9
2023-03-07T07:32:00.351Z,52909.0
2023-03-07T07:33:00.352Z,52862.5
2023-03-07T07:34:00.279Z,52815.9
2023-03-07T07:35:00.465Z,53308.5
2023-03-07T07:36:00.288Z,53801.0
2023-03-07T07:37:00.244Z,54293.5
2023-03-07T07:38:00.284Z,55082.0
2023-03-07T07:39:01.373Z,55870.5
2023-03-07T07:41:00.253Z,57521.7
2023-03-07T07:42:00.314Z,58347.3
2023-03-07T07:43:00.249Z,59180.7
2023-03-07T07:44:00.559Z,60014.1
2023-03-07T07:48:00.342Z,60886.2
2023-03-07T07:49:00.289Z,61758.3
2023-03-07T07:50:00.473Z,60082.3
2023-03-07T07:51:05.269Z,58406.3
2023-03-07T07:52:00.262Z,56730.3
2023-03-07T07:53:00.256Z,53440.1
2023-03-07T07:54:00.281Z,50149.9
2023-03-07T07:56:00.547Z,48707.1
2023-03-07T07:57:00.530Z,47985.7
2023-03-07T08:05:01.663Z,50710.2
2023-03-07T08:06:00.261Z,53434.7
2023-03-07T08:07:00.262Z,56159.1
2023-03-07T08:08:00.263Z,59119.4
2023-03-07T08:09:00.307Z,62079.7
2023-03-07T08:10:00.509Z,62321.5
2023-03-07T08:11:00.267Z,62563.4
2023-03-07T08:12:00.264Z,62805.3
2023-03-07T08:16:00.328Z,62097.0
2023-03-07T08:17:00.263Z,61742.9
2023-03-07T08:23:00.544Z,62086.9
2023-03-07T08:24:00.264Z,62431.0
2023-03-07T08:25:01.339Z,63111.5
2023-03-07T08:26:00.298Z,63792.1
2023-03-07T08:27:00.283Z,64472.6
2023-03-07T08:30:01.216Z,64826.7
2023-03-07T08:31:00.283Z,65180.9
2023-03-07T08:32:00.302Z,65535.0
2023-03-07T09:00:02.180Z,64725.5
2023-03-07T09:01:00.351Z,63915.9
2023-03-07T09:02:00.605Z,63106.4
2023-03-07T09:15:02.228Z,63444.7
2023-03-07T09:16:00.400Z,63783.1
2023-03-07T09:17:00.287Z,64121.4
2023-03-07T09:30:01.135Z,64592.6
2023-03-07T09:31:00.323Z,65063.8
2023-03-07T09:32:00.355Z,65535.0
2023-03-07T09:45:01.278Z,65535.0
2023-03-07T10:00:01.195Z,65535.0
2023-03-07T10:15:01.730Z,65535.0
2023-03-07T10:28:00.342Z,64726.3
2023-03-07T10:29:00.311Z,63917.7
2023-03-07T10:33:01.303Z,62890.1
2023-03-07T10:34:00.316Z,61862.6
2023-03-07T10:43:00.984Z,62671.3
2023-03-07T10:44:01.373Z,63479.9
2023-03-07T10:45:00.995Z,63479.9
2023-03-07T10:48:01.429Z,64507.5
2023-03-07T10:49:00.323Z,65535.0
2023-03-07T10:55:01.262Z,64993.6
2023-03-07T10:56:00.344Z,64452.2
2023-03-07T10:57:00.317Z,63910.8
2023-03-07T10:58:00.341Z,63609.9
2023-03-07T10:59:00.305Z,63308.9
2023-03-07T11:00:05.579Z,63308.9
2023-03-07T11:08:00.470Z,63229.6
2023-03-07T11:09:01.287Z,63150.3
2023-03-07T11:10:01.153Z,63691.7
2023-03-07T11:11:00.437Z,64233.1
2023-03-07T11:12:00.327Z,64774.5
2023-03-07T11:13:00.318Z,65075.4
2023-03-07T11:14:00.314Z,65376.3
2023-03-07T11:15:01.435Z,65376.3
2023-03-07T11:23:00.439Z,65455.7
2023-03-07T11:24:00.705Z,65535.0
2023-03-07T11:30:01.726Z,65535.0
2023-03-07T11:45:01.322Z,65535.0
2023-03-07T11:58:00.340Z,63920.5
2023-03-07T11:59:00.327Z,62305.9
2023-03-07T12:00:04.214Z,62305.9
2023-03-07T12:13:00.489Z,63920.5
2023-03-07T12:14:00.339Z,65535.0
2023-03-07T12:15:08.532Z,65535.0
2023-03-07T12:30:02.566Z,65535.0
2023-03-07T12:45:02.072Z,65535.0
2023-03-07T13:00:01.804Z,64872.2
2023-03-07T13:01:00.411Z,64209.4
2023-03-07T13:02:00.357Z,63546.6
2023-03-07T13:08:00.352Z,62950.1
2023-03-07T13:09:00.355Z,62353.7
2023-03-07T13:15:01.284Z,63016.5
2023-03-07T13:16:00.349Z,63679.3
2023-03-07T13:17:00.373Z,64342.1
2023-03-07T13:23:01.566Z,64938.5
2023-03-07T13:24:00.345Z,65535.0
2023-03-07T13:30:01.258Z,65535.0
2023-03-07T13:45:01.329Z,65535.0
2023-03-07T13:53:00.486Z,64714.5
2023-03-07T13:54:00.363Z,63894.1
2023-03-07T13:55:08.891Z,63146.3
2023-03-07T13:56:00.356Z,62398.5
2023-03-07T13:57:00.504Z,61650.7
2023-03-07T14:00:01.675Z,61650.7
2023-03-07T14:08:00.374Z,62471.1
2023-03-07T14:09:02.292Z,63291.6
2023-03-07T14:10:23.918Z,64039.4
2023-03-07T14:11:00.727Z,64787.2
2023-03-07T14:12:00.364Z,65535.0
2023-03-07T14:15:01.265Z,65535.0
2023-03-07T14:30:01.247Z,65299.6
2023-03-07T14:31:00.401Z,65064.2
2023-03-07T14:32:00.397Z,64828.8
2023-03-07T14:43:00.451Z,64406.5
2023-03-07T14:44:00.370Z,63984.3
2023-03-07T14:45:01.776Z,64219.7
2023-03-07T14:46:00.728Z,64455.1
2023-03-07T14:47:00.386Z,64690.5
2023-03-07T14:53:00.924Z,63919.1
2023-03-07T14:54:00.364Z,63147.8
2023-03-07T14:55:01.037Z,62376.5
2023-03-07T14:56:00.377Z,61148.9
2023-03-07T14:57:00.370Z,59921.3
2023-03-07T14:58:01.140Z,59227.1
2023-03-07T14:59:00.370Z,58533.0
2023-03-07T15:00:00.990Z,57416.6
2023-03-07T15:08:00.881Z,57941.8
2023-03-07T15:09:00.395Z,58467.0
2023-03-07T15:10:00.382Z,58992.2
2023-03-07T15:11:00.371Z,59043.4
2023-03-07T15:12:00.371Z,59094.6
2023-03-07T15:13:00.580Z,58373.1
2023-03-07T15:14:00.401Z,57651.7
2023-03-07T15:15:01.092Z,56930.2
2023-03-07T15:16:00.382Z,55028.3
2023-03-07T15:17:00.371Z,53126.5
2023-03-07T15:18:00.571Z,51161.5
2023-03-07T15:19:00.393Z,49196.5
2023-03-07T15:20:01.002Z,47231.5
2023-03-07T15:21:00.374Z,45143.9
2023-03-07T15:22:00.375Z,43056.4
2023-03-07T15:23:00.585Z,41190.8
2023-03-07T15:24:00.426Z,39325.2
2023-03-07T15:25:01.030Z,37459.6
2023-03-07T15:26:00.374Z,36521.5
2023-03-07T15:27:00.381Z,35583.5
2023-03-07T15:28:00.583Z,35231.3
2023-03-07T15:29:00.400Z,34879.1
2023-03-07T15:30:01.027Z,34526.9
2023-03-07T15:31:00.527Z,34339.0
2023-03-07T15:32:00.376Z,34151.1
2023-03-07T15:33:01.313Z,34412.1
2023-03-07T15:34:00.446Z,34673.1
2023-03-07T15:35:01.011Z,34934.1
2023-03-07T15:36:00.430Z,35157.7
2023-03-07T15:37:01.573Z,35381.3
2023-03-07T15:38:00.586Z,35619.7
2023-03-07T15:39:00.416Z,35858.0
2023-03-07T15:40:00.520Z,36096.3
2023-03-07T15:41:00.412Z,36465.9
2023-03-07T15:42:00.392Z,36835.4
2023-03-07T15:43:02.260Z,37426.8
2023-03-07T15:44:00.425Z,38018.2
2023-03-07T15:45:01.294Z,38609.6
2023-03-07T15:46:00.414Z,39177.0
2023-03-07T15:47:00.391Z,39744.4
2023-03-07T15:48:01.422Z,39759.1
2023-03-07T15:49:00.427Z,39773.9
2023-03-07T15:50:00.401Z,39788.6
2023-03-07T15:51:00.391Z,39568.3
2023-03-07T15:52:00.384Z,39348.1
2023-03-07T15:53:00.595Z,38669.8
2023-03-07T15:54:00.420Z,37991.5
2023-03-07T15:55:01.017Z,37313.3
2023-03-07T15:56:00.420Z,36244.3
2023-03-07T15:57:00.409Z,35175.3
2023-03-07T15:58:00.647Z,35295.7
2023-03-07T15:59:00.415Z,35416.1
2023-03-07T16:00:01.283Z,35536.5
2023-03-07T16:01:00.385Z,34668.0
2023-03-07T16:02:00.579Z,33799.5
2023-03-07T16:03:01.068Z,32825.9
2023-03-07T16:04:00.559Z,31852.2
2023-03-07T16:05:01.008Z,30878.5
2023-03-07T16:06:00.386Z,30180.1
2023-03-07T16:07:00.404Z,29481.7
2023-03-07T16:08:01.555Z,29185.1
2023-03-07T16:09:00.416Z,28888.4
2023-03-07T16:10:01.015Z,28591.7
2023-03-07T16:11:00.404Z,28497.9
2023-03-07T16:12:00.552Z,28404.0
2023-03-07T16:13:01.709Z,26923.8
2023-03-07T16:14:00.995Z,25443.6
2023-03-07T16:15:01.557Z,23963.4
2023-03-07T16:16:00.562Z,23346.8
2023-03-07T16:17:00.393Z,22730.2
2023-03-07T16:18:00.606Z,22335.3
2023-03-07T16:19:00.764Z,21940.3
2023-03-07T16:20:01.012Z,21545.4
2023-03-07T16:21:00.392Z,21222.7
2023-03-07T16:22:00.392Z,20899.9
2023-03-07T16:23:00.918Z,20591.9
2023-03-07T16:24:00.433Z,20283.9
2023-03-07T16:25:01.016Z,19975.9
2023-03-07T16:26:00.400Z,19676.0
2023-03-07T16:27:00.413Z,19376.1
2023-03-07T16:28:00.743Z,19073.7
2023-03-07T16:29:00.571Z,18771.4
2023-03-07T16:30:01.687Z,18469.1
2023-03-07T16:31:00.468Z,18153.4
2023-03-07T16:32:00.410Z,17837.7
2023-03-07T16:33:00.945Z,17498.9
2023-03-07T16:34:00.431Z,17160.0
2023-03-07T16:35:01.009Z,16821.1
2023-03-07T16:36:00.452Z,16479.5
2023-03-07T16:37:00.398Z,16137.9
2023-03-07T16:38:00.859Z,15788.9
2023-03-07T16:39:00.425Z,15439.8
2023-03-07T16:40:00.416Z,15090.7
2023-03-07T16:41:00.399Z,14733.1
2023-03-07T16:42:00.388Z,14375.5
2023-03-07T16:43:00.597Z,14009.4
2023-03-07T16:44:00.461Z,13643.3
2023-03-07T16:45:01.052Z,13277.1
2023-03-07T16:46:00.443Z,12911.7
2023-03-07T16:47:00.404Z,12546.2
2023-03-07T16:48:01.318Z,12184.2
2023-03-07T16:49:00.434Z,11822.2
2023-03-07T16:50:01.219Z,11460.2
2023-03-07T16:51:00.398Z,11074.7
2023-03-07T16:52:05.921Z,10689.3
2023-03-07T16:53:00.663Z,10294.2
2023-03-07T16:54:00.452Z,9899.1
2023-03-07T16:55:01.472Z,9504.1
2023-03-07T16:56:00.409Z,9111.1
2023-03-07T16:57:00.401Z,8718.2
2023-03-07T16:58:00.647Z,8333.3
2023-03-07T16:59:00.451Z,7948.5
2023-03-07T17:00:01.399Z,7563.6
2023-03-07T17:01:00.530Z,7191.1
2023-03-07T17:02:01.744Z,6818.7
2023-03-07T17:03:00.620Z,6471.1
2023-03-07T17:04:00.446Z,6123.6
2023-03-07T17:05:01.036Z,5776.1
2023-03-07T17:06:00.422Z,5460.5
2023-03-07T17:07:04.710Z,5144.9
2023-03-07T17:08:00.744Z,4859.4
2023-03-07T17:09:00.435Z,4573.9
2023-03-07T17:10:00.589Z,4288.5
2023-03-07T17:11:00.470Z,4026.9
2023-03-07T17:12:00.402Z,3765.4
2023-03-07T17:13:00.800Z,3527.7
2023-03-07T17:14:00.648Z,3290.1
2023-03-07T17:15:01.025Z,3052.4
2023-03-07T17:16:00.563Z,2838.1
2023-03-07T17:17:00.412Z,2623.9
2023-03-07T17:18:00.642Z,2432.9
2023-03-07T17:19:00.439Z,2241.9
2023-03-07T17:20:00.482Z,2050.9
2023-03-07T17:21:00.421Z,1883.3
2023-03-07T17:22:00.407Z,1715.8
2023-03-07T17:23:01.189Z,1571.5
2023-03-07T17:24:00.534Z,1427.1
2023-03-07T17:25:01.311Z,1282.8
2023-03-07T17:26:00.408Z,1160.9
2023-03-07T17:27:00.471Z,1038.9
2023-03-07T17:28:00.613Z,938.2
2023-03-07T17:29:00.429Z,837.5
2023-03-07T17:30:01.327Z,736.7
2023-03-07T17:31:00.443Z,655.7
2023-03-07T17:32:00.439Z,574.6
2023-03-07T17:33:00.609Z,511.1
2023-03-07T17:34:00.434Z,447.7
2023-03-07T17:35:01.089Z,384.2
2023-03-07T17:36:00.495Z,336.1
2023-03-07T17:37:00.472Z,287.9
2023-03-07T17:38:01.714Z,252.6
2023-03-07T17:39:00.441Z,217.3
2023-03-07T17:40:00.429Z,181.9
2023-03-07T17:41:00.416Z,156.9
2023-03-07T17:42:00.485Z,131.8
2023-03-07T17:43:01.015Z,114.4
2023-03-07T17:44:00.449Z,97.0
2023-03-07T17:45:01.045Z,79.6
2023-03-07T17:46:00.443Z,67.8
2023-03-07T17:47:00.417Z,56.0
2023-03-07T17:48:01.420Z,48.3
2023-03-07T17:49:00.441Z,40.7
2023-03-07T17:50:01.040Z,33.0
2023-03-07T17:51:00.418Z,28.1
2023-03-07T17:52:00.418Z,23.1
2023-03-07T17:53:01.022Z,20.0
2023-03-07T17:54:00.648Z,16.9
2023-03-07T17:55:00.435Z,13.7
2023-03-07T17:56:00.428Z,11.7
2023-03-07T17:57:00.435Z,9.6
2023-03-07T17:58:00.731Z,8.3
2023-03-07T17:59:00.454Z,7.1
2023-03-07T18:00:01.204Z,5.8
2023-03-07T18:01:00.425Z,5.0
2023-03-07T18:02:00.468Z,4.2
2023-03-07T18:03:00.639Z,3.7
2023-03-07T18:04:00.617Z,3.1
2023-03-07T18:05:01.052Z,2.6
2023-03-07T18:06:00.435Z,2.3
2023-03-07T18:07:00.503Z,1.9
2023-03-07T18:08:00.657Z,1.7
2023-03-07T18:09:00.461Z,1.4
2023-03-07T18:10:07.784Z,1.1
2023-03-07T18:11:00.434Z,1.0
2023-03-07T18:12:00.432Z,0.9
2023-03-07T18:13:00.660Z,0.7
2023-03-07T18:14:00.701Z,0.6
2023-03-07T18:15:01.127Z,0.5
2023-03-07T18:16:00.495Z,0.4
2023-03-07T18:17:00.426Z,0.3
2023-03-07T18:19:02.941Z,0.2
2023-03-07T18:20:00.475Z,0.1
2023-03-07T20:11:08.915Z,0.1
2023-03-07T20:13:00.579Z,0.2
2023-03-07T20:14:00.446Z,0.3
2023-03-07T20:15:00.458Z,0.3
2023-03-07T20:16:00.920Z,0.4
2023-03-07T20:17:00.477Z,0.5
2023-03-07T20:19:00.452Z,0.6
2023-03-07T20:20:00.465Z,0.7
2023-03-07T20:22:01.459Z,0.8
2023-03-07T20:23:00.459Z,0.9
2023-03-07T20:25:02.214Z,1.0
2023-03-07T20:30:01.407Z,1.0
2023-03-07T20:45:02.128Z,1.0
2023-03-07T21:00:05.059Z,1.0
2023-03-07T21:15:01.531Z,1.0
2023-03-07T21:30:01.455Z,1.0
2023-03-07T21:45:01.780Z,1.0
2023-03-07T22:00:01.637Z,1.0
2023-03-07T22:15:01.562Z,1.0
2023-03-07T22:30:02.897Z,1.0
2023-03-07T22:45:01.469Z,1.0
2023-03-07T23:00:03.417Z,1.0
2023-03-07T23:15:01.470Z,1.0
2023-03-07T23:30:01.389Z,1.0
2023-03-07T23:45:01.636Z,1.0
